createdAt,value
2022-10-30T00:01:54.265Z,100898.19
2022-10-30T00:04:24.182Z,100883.38
2022-10-30T00:06:52.569Z,100886.50
2022-10-30T00:09:21.038Z,100879.63
2022-10-30T00:11:51.167Z,100886.34
2022-10-30T00:14:23.277Z,100883.75
2022-10-30T00:16:52.100Z,100870.22
2022-10-30T00:19:21.038Z,100876.75
2022-10-30T00:21:49.706Z,100861.16
2022-10-30T00:24:19.546Z,100871.94
2022-10-30T00:26:49.903Z,100876.00
2022-10-30T00:29:20.277Z,100867.84
2022-10-30T00:31:48.615Z,100869.50
2022-10-30T00:34:17.408Z,100861.91
2022-10-30T00:36:45.879Z,100868.22
2022-10-30T00:39:16.688Z,100861.91
2022-10-30T00:41:46.725Z,100853.56
2022-10-30T00:44:37.931Z,100859.88
2022-10-30T00:47:12.541Z,100862.06
2022-10-30T00:49:51.739Z,100850.75
2022-10-30T00:52:22.669Z,100856.66
2022-10-30T00:54:52.258Z,100862.59
2022-10-30T00:57:21.800Z,100856.13
2022-10-30T00:59:51.344Z,100859.84
2022-10-30T01:02:22.538Z,100860.97
2022-10-30T01:04:53.950Z,100862.84
2022-10-30T01:07:22.998Z,100862.25
2022-10-30T01:09:52.013Z,100852.81
2022-10-30T01:12:20.727Z,100849.09
2022-10-30T01:14:54.375Z,100850.81
2022-10-30T01:17:49.543Z,100850.63
2022-10-30T01:20:32.177Z,100840.63
2022-10-30T01:23:14.477Z,100850.06
2022-10-30T01:25:57.945Z,100844.31
2022-10-30T01:28:44.149Z,100843.41
2022-10-30T01:31:41.171Z,100839.66
2022-10-30T01:34:19.220Z,100840.78
2022-10-30T01:36:56.056Z,100843.56
2022-10-30T01:39:28.183Z,100838.59
2022-10-30T01:41:56.777Z,100843.38
2022-10-30T01:44:31.476Z,100837.63
2022-10-30T01:47:14.064Z,100835.44
2022-10-30T01:50:08.589Z,100827.81
2022-10-30T01:52:43.487Z,100831.91
2022-10-30T01:55:21.878Z,100832.06
2022-10-30T01:57:59.748Z,100823.75
2022-10-30T02:00:28.802Z,100822.44
2022-10-30T02:02:59.538Z,100825.41
2022-10-30T02:05:37.623Z,100820.59
2022-10-30T02:08:06.477Z,100822.25
2022-10-30T02:10:38.999Z,100820.97
2022-10-30T02:13:07.634Z,100822.97
2022-10-30T02:15:36.932Z,100823.16
2022-10-30T02:18:07.117Z,100819.66
2022-10-30T02:20:37.141Z,100822.66
2022-10-30T02:23:06.960Z,100828.56
2022-10-30T02:25:36.710Z,100831.00
2022-10-30T02:28:05.284Z,100830.06
2022-10-30T02:30:38.270Z,100835.25
2022-10-30T02:33:07.018Z,100833.94
2022-10-30T02:35:37.802Z,100844.72
2022-10-30T02:38:05.833Z,100844.50
2022-10-30T02:40:35.849Z,100837.81
2022-10-30T02:43:06.118Z,100849.13
2022-10-30T02:45:34.531Z,100843.75
2022-10-30T02:48:03.821Z,100838.75
2022-10-30T02:50:33.699Z,100853.75
2022-10-30T02:53:03.351Z,100851.94
2022-10-30T02:55:31.813Z,100856.94
2022-10-30T02:58:00.722Z,100853.75
2022-10-30T03:00:29.144Z,100848.19
2022-10-30T03:02:58.164Z,100848.97
2022-10-30T03:05:27.457Z,100851.19
2022-10-30T03:07:56.533Z,100848.19
2022-10-30T03:10:26.782Z,100843.94
2022-10-30T03:12:56.430Z,100838.94
2022-10-30T03:15:24.933Z,100845.41
2022-10-30T03:17:53.512Z,100840.81
2022-10-30T03:20:21.818Z,100845.63
2022-10-30T03:22:53.194Z,100841.16
2022-10-30T03:25:23.972Z,100845.81
2022-10-30T03:27:58.473Z,100838.00
2022-10-30T03:30:27.436Z,100837.09
2022-10-30T03:32:56.109Z,100835.63
2022-10-30T03:35:24.955Z,100842.09
2022-10-30T03:37:54.679Z,100843.56
2022-10-30T03:40:23.249Z,100845.63
2022-10-30T03:42:53.805Z,100840.06
2022-10-30T03:45:25.563Z,100845.97
2022-10-30T03:47:53.921Z,100846.00
2022-10-30T03:50:22.179Z,100840.63
2022-10-30T03:52:50.457Z,100840.09
2022-10-30T03:55:18.705Z,100849.53
2022-10-30T03:57:47.105Z,100849.53
2022-10-30T04:00:19.415Z,100847.88
2022-10-30T04:03:00.003Z,100850.44
2022-10-30T04:05:31.087Z,100846.75
2022-10-30T04:08:01.298Z,100852.50
2022-10-30T04:10:32.838Z,100855.47
2022-10-30T04:13:06.033Z,100848.81
2022-10-30T04:15:35.866Z,100843.44
2022-10-30T04:18:05.867Z,100851.94
2022-10-30T04:20:36.007Z,100847.28
2022-10-30T04:23:07.395Z,100844.31
2022-10-30T04:25:36.951Z,100842.66
2022-10-30T04:28:05.656Z,100845.25
2022-10-30T04:30:35.848Z,100850.25
2022-10-30T04:33:08.890Z,100847.88
2022-10-30T04:35:38.776Z,100851.91
2022-10-30T04:38:15.209Z,100848.94
2022-10-30T04:40:47.889Z,100854.13
2022-10-30T04:43:17.877Z,100849.84
2022-10-30T04:45:51.875Z,100856.34
2022-10-30T04:48:22.440Z,100851.69
2022-10-30T04:50:51.030Z,100854.09
2022-10-30T04:53:24.988Z,100845.53
2022-10-30T04:55:59.961Z,100848.50
2022-10-30T04:58:29.622Z,100845.16
2022-10-30T05:01:07.899Z,100838.47
2022-10-30T05:03:39.895Z,100852.53
2022-10-30T05:06:21.295Z,100850.28
2022-10-30T05:08:49.893Z,100846.91
2022-10-30T05:11:28.732Z,100842.84
2022-10-30T05:13:59.050Z,100839.88
2022-10-30T05:16:27.740Z,100838.75
2022-10-30T05:18:59.331Z,100840.56
2022-10-30T05:21:28.080Z,100847.41
2022-10-30T05:23:56.304Z,100844.63
2022-10-30T05:26:25.957Z,100844.28
2022-10-30T05:28:55.853Z,100848.88
2022-10-30T05:31:24.238Z,100845.69
2022-10-30T05:34:23.266Z,100852.00
2022-10-30T05:36:54.253Z,100839.78
2022-10-30T05:39:23.614Z,100837.34
2022-10-30T05:41:53.502Z,100840.09
2022-10-30T05:44:40.795Z,100846.31
2022-10-30T05:47:13.842Z,100838.75
2022-10-30T05:49:48.113Z,100844.84
2022-10-30T05:52:20.456Z,100840.94
2022-10-30T05:54:51.180Z,100849.41
2022-10-30T05:57:33.026Z,100849.94
2022-10-30T06:00:03.413Z,100844.00
2022-10-30T06:02:33.274Z,100856.38
2022-10-30T06:05:03.354Z,100848.06
2022-10-30T06:07:33.712Z,100852.88
2022-10-30T06:10:03.062Z,100861.41
2022-10-30T06:12:54.939Z,100854.72
2022-10-30T06:15:43.644Z,100862.47
2022-10-30T06:18:12.650Z,100865.06
2022-10-30T06:20:44.761Z,100859.50
2022-10-30T06:23:17.701Z,100860.25
2022-10-30T06:25:53.022Z,100868.78
2022-10-30T06:28:32.052Z,100870.03
2022-10-30T06:31:00.754Z,100873.53
2022-10-30T06:33:29.509Z,100868.78
2022-10-30T06:35:59.386Z,100871.91
2022-10-30T06:38:27.673Z,100871.91
2022-10-30T06:40:56.857Z,100879.00
2022-10-30T06:43:46.218Z,100877.91
2022-10-30T06:46:22.663Z,100877.38
2022-10-30T06:48:52.631Z,100886.69
2022-10-30T06:51:24.807Z,100891.34
2022-10-30T06:53:55.642Z,100876.78
2022-10-30T06:56:42.293Z,100872.44
2022-10-30T06:59:29.418Z,100877.09
2022-10-30T07:02:12.171Z,100876.59
2022-10-30T07:04:46.964Z,100879.19
2022-10-30T07:07:17.737Z,100878.31
2022-10-30T07:09:47.120Z,100871.13
2022-10-30T07:12:17.591Z,100874.13
2022-10-30T07:15:12.945Z,100869.31
2022-10-30T07:18:15.504Z,100882.69
2022-10-30T07:20:44.423Z,100888.63
2022-10-30T07:23:14.080Z,100893.25
2022-10-30T07:25:42.357Z,100889.19
2022-10-30T07:28:19.988Z,100891.75
2022-10-30T07:31:29.008Z,100888.53
2022-10-30T07:34:12.617Z,100899.59
2022-10-30T07:36:57.794Z,100897.38
2022-10-30T07:39:32.407Z,100897.38
2022-10-30T07:42:15.583Z,100902.94
2022-10-30T07:45:02.775Z,100894.03
2022-10-30T07:47:49.433Z,100901.63
2022-10-30T07:50:28.891Z,100898.06
2022-10-30T07:52:57.619Z,100895.09
2022-10-30T07:55:30.373Z,100899.72
2022-10-30T07:58:16.963Z,100906.34
2022-10-30T08:00:45.612Z,100895.66
2022-10-30T08:03:23.420Z,100906.16
2022-10-30T08:05:57.193Z,100903.50
2022-10-30T08:08:35.104Z,100901.59
2022-10-30T08:11:21.970Z,100898.69
2022-10-30T08:13:52.417Z,100901.03
2022-10-30T08:16:24.140Z,100899.25
2022-10-30T08:18:52.522Z,100904.91
2022-10-30T08:21:25.259Z,100904.44
2022-10-30T08:24:01.824Z,100909.94
2022-10-30T08:26:35.337Z,100910.63
2022-10-30T08:29:04.787Z,100907.50
2022-10-30T08:31:53.658Z,100914.78
2022-10-30T08:34:26.604Z,100910.53
2022-10-30T08:36:57.951Z,100911.19
2022-10-30T08:39:26.664Z,100911.25
2022-10-30T08:42:08.846Z,100912.63
2022-10-30T08:44:43.190Z,100907.84
2022-10-30T08:47:35.371Z,100903.50
2022-10-30T08:50:03.950Z,100901.81
2022-10-30T08:52:33.890Z,100908.63
2022-10-30T08:55:05.082Z,100912.06
2022-10-30T08:57:39.720Z,100915.09
2022-10-30T09:00:11.486Z,100915.88
2022-10-30T09:03:09.324Z,100917.50
2022-10-30T09:05:46.558Z,100911.31
2022-10-30T09:08:30.341Z,100908.38
2022-10-30T09:11:25.010Z,100903.38
2022-10-30T09:13:56.284Z,100893.38
2022-10-30T09:16:25.165Z,100903.09
2022-10-30T09:19:00.776Z,100898.38
2022-10-30T09:21:29.647Z,100898.84
2022-10-30T09:24:00.054Z,100890.13
2022-10-30T09:26:37.607Z,100895.31
2022-10-30T09:29:14.658Z,100890.44
2022-10-30T09:31:58.017Z,100888.81
2022-10-30T09:34:29.162Z,100881.16
2022-10-30T09:37:08.635Z,100881.88
2022-10-30T09:39:42.341Z,100890.97
2022-10-30T09:42:25.226Z,100880.66
2022-10-30T09:45:33.454Z,100878.53
2022-10-30T09:48:20.585Z,100874.25
2022-10-30T09:51:18.323Z,100869.88
2022-10-30T09:53:58.270Z,100870.16
2022-10-30T09:56:37.753Z,100884.94
2022-10-30T09:59:16.384Z,100889.22
2022-10-30T10:01:50.973Z,100898.09
2022-10-30T10:04:40.585Z,100896.53
2022-10-30T10:07:22.967Z,100896.81
2022-10-30T10:10:02.667Z,100904.88
2022-10-30T10:12:45.105Z,100894.84
2022-10-30T10:15:20.860Z,100892.91
2022-10-30T10:17:50.586Z,100893.09
2022-10-30T10:20:28.655Z,100890.78
2022-10-30T10:22:58.747Z,100890.69
2022-10-30T10:25:28.661Z,100901.72
2022-10-30T10:28:09.115Z,100893.28
2022-10-30T10:30:47.615Z,100899.88
2022-10-30T10:33:34.905Z,100891.09
2022-10-30T10:36:15.768Z,100885.69
2022-10-30T10:38:58.412Z,100884.63
2022-10-30T10:41:37.596Z,100880.97
2022-10-30T10:44:22.786Z,100872.16
2022-10-30T10:47:07.538Z,100877.28
2022-10-30T10:49:49.882Z,100870.66
2022-10-30T10:52:24.149Z,100871.19
2022-10-30T10:54:59.017Z,100872.91
2022-10-30T10:57:30.552Z,100877.16
2022-10-30T11:00:04.063Z,100873.38
2022-10-30T11:02:39.410Z,100870.56
2022-10-30T11:05:22.570Z,100868.81
2022-10-30T11:07:51.496Z,100864.16
2022-10-30T11:10:22.544Z,100873.00
2022-10-30T11:12:52.947Z,100871.50
2022-10-30T11:15:34.362Z,100871.50
2022-10-30T11:20:44.090Z,100871.50
2022-10-30T11:23:35.910Z,100865.72
2022-10-30T11:26:04.951Z,100864.59
2022-10-30T11:28:40.085Z,100863.50
2022-10-30T11:31:21.782Z,100858.94
2022-10-30T11:33:50.964Z,100857.94
2022-10-30T11:36:25.801Z,100856.81
2022-10-30T11:38:59.286Z,100853.09
2022-10-30T11:41:27.614Z,100865.16
2022-10-30T11:43:57.622Z,100855.91
2022-10-30T11:46:26.020Z,100860.56
2022-10-30T11:48:55.557Z,100854.38
2022-10-30T11:51:38.237Z,100847.41
2022-10-30T11:54:08.027Z,100852.09
2022-10-30T11:56:37.783Z,100841.47
2022-10-30T11:59:07.571Z,100848.56
2022-10-30T12:01:39.192Z,100845.34
2022-10-30T12:04:23.785Z,100840.22
2022-10-30T12:07:08.184Z,100840.53
2022-10-30T12:09:44.317Z,100842.63
2022-10-30T12:12:14.340Z,100835.66
2022-10-30T12:14:42.654Z,100841.28
2022-10-30T12:17:16.980Z,100834.94
2022-10-30T12:19:51.148Z,100834.19
2022-10-30T12:22:31.024Z,100837.88
2022-10-30T12:25:03.126Z,100826.91
2022-10-30T12:27:36.459Z,100833.69
2022-10-30T12:30:10.514Z,100825.94
2022-10-30T12:32:46.699Z,100834.53
2022-10-30T12:35:35.968Z,100828.25
2022-10-30T12:38:12.370Z,100816.97
2022-10-30T12:40:46.824Z,100818.44
2022-10-30T12:43:20.879Z,100812.69
2022-10-30T12:45:53.979Z,100815.91
2022-10-30T12:48:29.082Z,100810.91
2022-10-30T12:51:15.910Z,100808.31
2022-10-30T12:53:58.511Z,100803.28
2022-10-30T12:56:32.834Z,100803.91
2022-10-30T12:59:18.108Z,100795.88
2022-10-30T13:01:53.051Z,100786.13
2022-10-30T13:04:26.739Z,100796.38
2022-10-30T13:07:05.834Z,100792.81
2022-10-30T13:09:41.483Z,100791.06
2022-10-30T13:12:14.335Z,100795.88
2022-10-30T13:14:47.321Z,100784.69
2022-10-30T13:17:16.374Z,100781.53
2022-10-30T13:19:47.873Z,100783.44
2022-10-30T13:22:21.687Z,100783.94
2022-10-30T13:25:04.014Z,100777.88
2022-10-30T13:27:42.305Z,100786.97
2022-10-30T13:30:16.516Z,100785.72
2022-10-30T13:33:02.651Z,100779.56
2022-10-30T13:35:36.937Z,100790.91
2022-10-30T13:38:19.938Z,100781.63
2022-10-30T13:40:54.631Z,100782.25
2022-10-30T13:43:30.533Z,100781.53
2022-10-30T13:46:11.426Z,100776.41
2022-10-30T13:48:51.450Z,100769.63
2022-10-30T13:51:33.760Z,100776.00
2022-10-30T13:54:11.382Z,100770.78
2022-10-30T13:56:43.082Z,100771.94
2022-10-30T13:59:26.076Z,100771.75
2022-10-30T14:02:05.679Z,100776.63
2022-10-30T14:04:42.353Z,100774.88
2022-10-30T14:07:24.092Z,100761.81
2022-10-30T14:10:03.996Z,100775.06
2022-10-30T14:12:50.751Z,100766.09
2022-10-30T14:15:28.100Z,100778.22
2022-10-30T14:18:25.764Z,100779.66
2022-10-30T14:20:54.951Z,100772.03
2022-10-30T14:23:26.228Z,100772.84
2022-10-30T14:26:22.059Z,100777.16
2022-10-30T14:28:56.350Z,100778.41
2022-10-30T14:31:35.974Z,100783.09
2022-10-30T14:34:04.446Z,100777.03
2022-10-30T14:36:51.877Z,100782.75
2022-10-30T14:39:29.581Z,100777.13
2022-10-30T14:42:08.418Z,100777.41
2022-10-30T14:44:51.859Z,100780.09
2022-10-30T14:47:49.198Z,100777.88
2022-10-30T14:50:31.517Z,100769.25
2022-10-30T14:53:29.449Z,100774.56
2022-10-30T14:56:05.658Z,100774.22
2022-10-30T14:58:35.486Z,100773.78
2022-10-30T15:03:59.644Z,100759.97
2022-10-30T15:06:35.318Z,100769.44
2022-10-30T15:09:28.912Z,100765.41
2022-10-30T15:12:30.872Z,100758.84
2022-10-30T15:15:03.815Z,100765.94
2022-10-30T15:17:35.236Z,100766.09
2022-10-30T15:20:09.686Z,100766.09
2022-10-30T15:22:38.103Z,100763.44
2022-10-30T15:25:16.287Z,100761.63
2022-10-30T15:27:53.353Z,100766.03
2022-10-30T15:30:27.277Z,100767.72
2022-10-30T15:32:55.983Z,100766.41
2022-10-30T15:35:27.071Z,100761.53
2022-10-30T15:38:00.250Z,100764.66
2022-10-30T15:40:29.493Z,100767.34
2022-10-30T15:43:01.251Z,100760.03
2022-10-30T15:45:34.473Z,100760.59
2022-10-30T15:48:07.846Z,100759.13
2022-10-30T15:50:42.140Z,100766.53
2022-10-30T15:53:19.707Z,100768.94
2022-10-30T15:55:49.482Z,100773.50
2022-10-30T15:58:23.212Z,100769.50
2022-10-30T16:00:59.071Z,100765.06
2022-10-30T16:03:28.183Z,100769.25
2022-10-30T16:06:18.273Z,100767.56
2022-10-30T16:08:48.750Z,100769.31
2022-10-30T16:11:17.907Z,100761.47
2022-10-30T16:13:46.555Z,100771.97
2022-10-30T16:16:31.131Z,100776.78
2022-10-30T16:19:02.182Z,100771.06
2022-10-30T16:21:32.734Z,100774.63
2022-10-30T16:24:05.324Z,100771.41
2022-10-30T16:26:35.371Z,100763.91
2022-10-30T16:29:18.231Z,100778.44
2022-10-30T16:31:50.050Z,100776.09
2022-10-30T16:34:24.515Z,100776.81
2022-10-30T16:36:54.896Z,100776.53
2022-10-30T16:39:23.568Z,100771.78
2022-10-30T16:41:52.732Z,100778.41
2022-10-30T16:44:28.472Z,100783.53
2022-10-30T16:46:58.716Z,100791.16
2022-10-30T16:49:30.107Z,100794.38
2022-10-30T16:52:03.150Z,100795.50
2022-10-30T16:54:36.932Z,100793.13
2022-10-30T16:57:12.260Z,100796.94
2022-10-30T16:59:48.076Z,100802.81
2022-10-30T17:02:20.496Z,100809.63
2022-10-30T17:04:55.342Z,100826.34
2022-10-30T17:07:27.915Z,100820.84
2022-10-30T17:09:58.681Z,100827.41
2022-10-30T17:12:29.228Z,100826.34
2022-10-30T17:15:12.650Z,100823.09
2022-10-30T17:17:42.755Z,100831.22
2022-10-30T17:20:14.841Z,100837.16
2022-10-30T17:22:45.301Z,100838.88
2022-10-30T17:25:19.077Z,100847.34
2022-10-30T17:27:52.688Z,100850.22
2022-10-30T17:30:34.837Z,100855.44
2022-10-30T17:33:05.046Z,100862.34
2022-10-30T17:35:35.128Z,100858.47
2022-10-30T17:38:05.303Z,100859.84
2022-10-30T17:40:33.954Z,100858.03
2022-10-30T17:43:02.274Z,100861.97
2022-10-30T17:45:30.384Z,100863.69
2022-10-30T17:47:59.147Z,100867.22
2022-10-30T17:50:27.607Z,100864.84
2022-10-30T17:52:56.778Z,100873.59
2022-10-30T17:55:31.243Z,100859.47
2022-10-30T17:57:59.833Z,100868.25
2022-10-30T18:00:28.889Z,100874.81
2022-10-30T18:02:57.790Z,100869.34
2022-10-30T18:05:30.185Z,100876.91
2022-10-30T18:07:58.646Z,100886.56
2022-10-30T18:10:34.133Z,100884.16
2022-10-30T18:13:02.744Z,100885.56
2022-10-30T18:15:34.507Z,100890.47
2022-10-30T18:18:08.981Z,100895.53
2022-10-30T18:20:46.290Z,100900.84
2022-10-30T18:23:50.409Z,100904.09
2022-10-30T18:26:14.896Z,100898.41
2022-10-30T18:28:44.105Z,100902.91
2022-10-30T18:31:13.738Z,100899.69
2022-10-30T18:33:42.661Z,100912.66
2022-10-30T18:36:13.241Z,100901.81
2022-10-30T18:38:41.613Z,100921.44
2022-10-30T18:41:24.008Z,100920.41
2022-10-30T18:43:55.411Z,100920.81
2022-10-30T18:46:24.730Z,100922.91
2022-10-30T18:48:53.630Z,100928.13
2022-10-30T18:51:24.843Z,100923.53
2022-10-30T18:53:54.273Z,100927.06
2022-10-30T18:56:25.378Z,100923.25
2022-10-30T18:58:58.526Z,100918.84
2022-10-30T19:01:32.055Z,100915.50
2022-10-30T19:04:03.696Z,100918.47
2022-10-30T19:06:34.100Z,100928.50
2022-10-30T19:09:14.351Z,100927.44
2022-10-30T19:11:44.635Z,100925.38
2022-10-30T19:14:16.674Z,100933.00
2022-10-30T19:16:45.193Z,100931.50
2022-10-30T19:19:15.154Z,100934.88
2022-10-30T19:21:43.496Z,100930.41
2022-10-30T19:24:16.463Z,100933.22
2022-10-30T19:26:46.191Z,100928.22
2022-10-30T19:29:14.608Z,100928.25
2022-10-30T19:31:43.617Z,100930.69
2022-10-30T19:34:12.570Z,100933.09
2022-10-30T19:36:41.123Z,100934.56
2022-10-30T19:39:13.496Z,100936.44
2022-10-30T19:41:44.747Z,100934.56
2022-10-30T19:44:14.779Z,100940.13
2022-10-30T19:46:43.125Z,100939.59
2022-10-30T19:49:18.492Z,100938.28
2022-10-30T19:51:47.520Z,100944.22
2022-10-30T19:54:16.805Z,100947.94
2022-10-30T19:56:45.517Z,100949.06
2022-10-30T19:59:16.494Z,100950.16
2022-10-30T20:01:45.162Z,100940.88
2022-10-30T20:04:13.785Z,100945.91
2022-10-30T20:06:42.412Z,100939.41
2022-10-30T20:09:11.745Z,100943.84
2022-10-30T20:11:40.095Z,100946.44
2022-10-30T20:14:08.483Z,100948.31
2022-10-30T20:16:38.623Z,100956.25
2022-10-30T20:19:29.186Z,100951.81
2022-10-30T20:21:58.063Z,100962.97
2022-10-30T20:24:26.812Z,100956.84
2022-10-30T20:26:58.674Z,100963.53
2022-10-30T20:29:28.562Z,100958.50
2022-10-30T20:31:58.450Z,100971.69
2022-10-30T20:34:26.845Z,100975.19
2022-10-30T20:36:55.122Z,100971.66
2022-10-30T20:39:23.577Z,100969.06
2022-10-30T20:41:53.812Z,100973.88
2022-10-30T20:44:22.300Z,100967.75
2022-10-30T20:46:50.764Z,100972.94
2022-10-30T20:49:21.092Z,100972.56
2022-10-30T20:51:49.897Z,100984.22
2022-10-30T20:54:18.992Z,100980.88
2022-10-30T20:56:47.202Z,100985.31
2022-10-30T20:59:16.031Z,100982.91
2022-10-30T21:01:44.831Z,100986.59
2022-10-30T21:04:13.302Z,100986.97
2022-10-30T21:06:43.499Z,100994.38
2022-10-30T21:09:11.960Z,100987.31
2022-10-30T21:11:40.351Z,100991.59
2022-10-30T21:14:08.877Z,100986.78
2022-10-30T21:16:37.283Z,100983.78
2022-10-30T21:19:05.636Z,100985.84
2022-10-30T21:21:35.205Z,100982.88
2022-10-30T21:24:04.865Z,100989.34
2022-10-30T21:26:37.667Z,100992.66
2022-10-30T21:29:06.386Z,100990.44
2022-10-30T21:31:34.649Z,100983.59
2022-10-30T21:34:02.997Z,100984.13
2022-10-30T21:36:31.232Z,100998.00
2022-10-30T21:38:59.974Z,100996.00
2022-10-30T21:41:29.846Z,100997.63
2022-10-30T21:43:58.986Z,100995.41
2022-10-30T21:46:29.824Z,100996.34
2022-10-30T21:49:04.514Z,101002.63
2022-10-30T21:51:33.876Z,100996.72
2022-10-30T21:54:02.380Z,100997.78
2022-10-30T21:56:32.627Z,100984.09
2022-10-30T21:59:04.647Z,100986.31
2022-10-30T22:01:35.822Z,100985.56
2022-10-30T22:04:06.276Z,100987.59
2022-10-30T22:06:37.055Z,100982.94
2022-10-30T22:09:06.433Z,100983.69
2022-10-30T22:11:36.823Z,100989.06
2022-10-30T22:14:09.089Z,100989.78
2022-10-30T22:16:39.790Z,100996.09
2022-10-30T22:19:09.602Z,100984.97
2022-10-30T22:21:39.876Z,100983.31
2022-10-30T22:24:10.629Z,100985.88
2022-10-30T22:26:40.309Z,100992.19
2022-10-30T22:29:08.399Z,100980.34
2022-10-30T22:31:37.131Z,100990.50
2022-10-30T22:34:05.376Z,100994.94
2022-10-30T22:36:34.560Z,100997.16
2022-10-30T22:39:06.379Z,100989.66
2022-10-30T22:41:38.065Z,100983.41
2022-10-30T22:44:11.934Z,100992.34
2022-10-30T22:46:40.215Z,100992.34
2022-10-30T22:49:08.559Z,100990.84
2022-10-30T22:51:38.472Z,100992.53
2022-10-30T22:54:09.040Z,100979.00
2022-10-30T22:56:38.135Z,100991.25
2022-10-30T22:59:09.646Z,100993.84
2022-10-30T23:01:41.225Z,100992.19
2022-10-30T23:04:12.132Z,100988.13
2022-10-30T23:06:41.788Z,100992.91
2022-10-30T23:09:10.987Z,100990.09
2022-10-30T23:11:39.197Z,100987.00
2022-10-30T23:14:08.865Z,100981.63
2022-10-30T23:16:37.351Z,100978.25
2022-10-30T23:19:05.838Z,100982.34
2022-10-30T23:21:34.677Z,100984.75
2022-10-30T23:24:05.460Z,100984.56
2022-10-30T23:26:37.027Z,100979.34
2022-10-30T23:29:05.764Z,100992.44
2022-10-30T23:31:40.426Z,100994.88
2022-10-30T23:34:11.614Z,100990.22
2022-10-30T23:36:40.492Z,100988.72
2022-10-30T23:39:12.536Z,100993.69
2022-10-30T23:41:41.223Z,100996.25
2022-10-30T23:44:13.005Z,100999.13
2022-10-30T23:46:43.175Z,100993.72
2022-10-30T23:49:11.795Z,100996.97
2022-10-30T23:51:40.742Z,100993.63
2022-10-30T23:54:09.996Z,100993.41
2022-10-30T23:56:38.222Z,100995.63
2022-10-30T23:59:06.776Z,100993.41
